sensor_id;sensor_type;location;lat;lon;timestamp;P1;durP1;ratioP1;P2;durP2;ratioP2
12181;SDS011;6154;51.550;12.138;2023-05-21T00:00:18;17.73;;;12.27;;
12181;SDS011;6154;51.550;12.138;2023-05-21T00:02:47;20.17;;;12.35;;
12181;SDS011;6154;51.550;12.138;2023-05-21T00:05:15;17.80;;;11.35;;
12181;SDS011;6154;51.550;12.138;2023-05-21T00:07:45;17.60;;;11.63;;
12181;SDS011;6154;51.550;12.138;2023-05-21T00:10:14;20.05;;;12.90;;
12181;SDS011;6154;51.550;12.138;2023-05-21T00:12:42;19.77;;;12.18;;
12181;SDS011;6154;51.550;12.138;2023-05-21T00:15:11;16.83;;;11.27;;
12181;SDS011;6154;51.550;12.138;2023-05-21T00:17:40;17.62;;;12.43;;
12181;SDS011;6154;51.550;12.138;2023-05-21T00:20:09;19.52;;;12.18;;
12181;SDS011;6154;51.550;12.138;2023-05-21T00:22:38;21.80;;;13.30;;
12181;SDS011;6154;51.550;12.138;2023-05-21T00:25:10;20.70;;;12.07;;
12181;SDS011;6154;51.550;12.138;2023-05-21T00:27:38;25.62;;;13.48;;
12181;SDS011;6154;51.550;12.138;2023-05-21T00:30:07;19.37;;;11.73;;
12181;SDS011;6154;51.550;12.138;2023-05-21T00:32:36;19.45;;;12.30;;
12181;SDS011;6154;51.550;12.138;2023-05-21T00:35:04;20.65;;;11.30;;
12181;SDS011;6154;51.550;12.138;2023-05-21T00:37:33;20.50;;;12.98;;
12181;SDS011;6154;51.550;12.138;2023-05-21T00:40:05;19.17;;;12.88;;
12181;SDS011;6154;51.550;12.138;2023-05-21T00:42:36;20.50;;;12.48;;
12181;SDS011;6154;51.550;12.138;2023-05-21T00:45:07;21.62;;;12.02;;
12181;SDS011;6154;51.550;12.138;2023-05-21T00:47:35;19.35;;;12.05;;
12181;SDS011;6154;51.550;12.138;2023-05-21T00:50:05;17.70;;;11.45;;
12181;SDS011;6154;51.550;12.138;2023-05-21T00:52:34;16.73;;;11.60;;
12181;SDS011;6154;51.550;12.138;2023-05-21T00:55:08;21.60;;;11.90;;
12181;SDS011;6154;51.550;12.138;2023-05-21T00:57:39;18.92;;;10.98;;
12181;SDS011;6154;51.550;12.138;2023-05-21T01:00:08;21.10;;;12.75;;
12181;SDS011;6154;51.550;12.138;2023-05-21T01:02:38;23.80;;;11.60;;
12181;SDS011;6154;51.550;12.138;2023-05-21T01:05:06;17.05;;;12.23;;
12181;SDS011;6154;51.550;12.138;2023-05-21T01:07:35;19.62;;;11.82;;
12181;SDS011;6154;51.550;12.138;2023-05-21T01:10:08;20.50;;;11.90;;
12181;SDS011;6154;51.550;12.138;2023-05-21T01:12:42;19.75;;;11.23;;
12181;SDS011;6154;51.550;12.138;2023-05-21T01:15:11;18.27;;;11.65;;
12181;SDS011;6154;51.550;12.138;2023-05-21T01:17:40;19.27;;;12.65;;
12181;SDS011;6154;51.550;12.138;2023-05-21T01:20:12;18.70;;;11.73;;
12181;SDS011;6154;51.550;12.138;2023-05-21T01:22:49;18.77;;;11.88;;
12181;SDS011;6154;51.550;12.138;2023-05-21T01:25:19;18.00;;;12.48;;
12181;SDS011;6154;51.550;12.138;2023-05-21T01:27:47;20.52;;;12.27;;
12181;SDS011;6154;51.550;12.138;2023-05-21T01:30:15;21.42;;;12.10;;
12181;SDS011;6154;51.550;12.138;2023-05-21T01:32:47;19.48;;;11.45;;
12181;SDS011;6154;51.550;12.138;2023-05-21T01:35:19;22.00;;;12.00;;
12181;SDS011;6154;51.550;12.138;2023-05-21T01:37:54;16.00;;;11.07;;
12181;SDS011;6154;51.550;12.138;2023-05-21T01:40:28;20.62;;;11.48;;
12181;SDS011;6154;51.550;12.138;2023-05-21T01:43:01;18.02;;;12.65;;
12181;SDS011;6154;51.550;12.138;2023-05-21T01:45:32;18.70;;;11.95;;
12181;SDS011;6154;51.550;12.138;2023-05-21T01:48:03;17.80;;;11.32;;
12181;SDS011;6154;51.550;12.138;2023-05-21T01:50:33;19.20;;;11.63;;
12181;SDS011;6154;51.550;12.138;2023-05-21T01:53:04;22.50;;;12.45;;
12181;SDS011;6154;51.550;12.138;2023-05-21T01:55:32;19.48;;;11.95;;
12181;SDS011;6154;51.550;12.138;2023-05-21T01:58:05;21.62;;;13.02;;
12181;SDS011;6154;51.550;12.138;2023-05-21T02:00:34;18.77;;;12.32;;
12181;SDS011;6154;51.550;12.138;2023-05-21T02:03:03;20.67;;;12.15;;
12181;SDS011;6154;51.550;12.138;2023-05-21T02:05:31;20.75;;;12.30;;
12181;SDS011;6154;51.550;12.138;2023-05-21T02:08:00;18.87;;;12.70;;
12181;SDS011;6154;51.550;12.138;2023-05-21T02:10:30;22.30;;;13.00;;
12181;SDS011;6154;51.550;12.138;2023-05-21T02:12:58;20.02;;;12.57;;
12181;SDS011;6154;51.550;12.138;2023-05-21T02:15:27;20.75;;;12.30;;
12181;SDS011;6154;51.550;12.138;2023-05-21T02:17:56;20.92;;;12.45;;
12181;SDS011;6154;51.550;12.138;2023-05-21T02:20:25;17.37;;;12.02;;
12181;SDS011;6154;51.550;12.138;2023-05-21T02:22:53;18.92;;;13.15;;
12181;SDS011;6154;51.550;12.138;2023-05-21T02:25:21;20.37;;;12.80;;
12181;SDS011;6154;51.550;12.138;2023-05-21T02:27:51;18.80;;;12.23;;
12181;SDS011;6154;51.550;12.138;2023-05-21T02:30:22;22.25;;;13.23;;
12181;SDS011;6154;51.550;12.138;2023-05-21T02:32:51;17.83;;;11.45;;
12181;SDS011;6154;51.550;12.138;2023-05-21T02:35:23;20.70;;;11.98;;
12181;SDS011;6154;51.550;12.138;2023-05-21T02:37:52;24.15;;;12.50;;
12181;SDS011;6154;51.550;12.138;2023-05-21T02:40:24;17.23;;;12.52;;
12181;SDS011;6154;51.550;12.138;2023-05-21T02:42:54;21.75;;;13.05;;
12181;SDS011;6154;51.550;12.138;2023-05-21T02:45:22;16.40;;;11.75;;
12181;SDS011;6154;51.550;12.138;2023-05-21T02:47:51;20.77;;;12.73;;
12181;SDS011;6154;51.550;12.138;2023-05-21T02:50:19;22.42;;;12.68;;
12181;SDS011;6154;51.550;12.138;2023-05-21T02:52:49;22.60;;;13.95;;
12181;SDS011;6154;51.550;12.138;2023-05-21T02:55:20;25.23;;;13.00;;
12181;SDS011;6154;51.550;12.138;2023-05-21T02:57:49;22.45;;;12.02;;
12181;SDS011;6154;51.550;12.138;2023-05-21T03:00:19;20.52;;;13.13;;
12181;SDS011;6154;51.550;12.138;2023-05-21T03:02:48;19.95;;;12.15;;
12181;SDS011;6154;51.550;12.138;2023-05-21T03:05:16;22.87;;;12.32;;
12181;SDS011;6154;51.550;12.138;2023-05-21T03:07:44;22.37;;;13.62;;
12181;SDS011;6154;51.550;12.138;2023-05-21T03:10:13;21.80;;;13.48;;
12181;SDS011;6154;51.550;12.138;2023-05-21T03:12:42;18.40;;;11.93;;
12181;SDS011;6154;51.550;12.138;2023-05-21T03:15:10;24.17;;;13.27;;
12181;SDS011;6154;51.550;12.138;2023-05-21T03:17:42;23.52;;;13.55;;
12181;SDS011;6154;51.550;12.138;2023-05-21T03:20:10;20.58;;;12.37;;
12181;SDS011;6154;51.550;12.138;2023-05-21T03:22:42;21.00;;;13.05;;
12181;SDS011;6154;51.550;12.138;2023-05-21T03:25:11;20.60;;;13.62;;
12181;SDS011;6154;51.550;12.138;2023-05-21T03:27:39;20.40;;;12.93;;
12181;SDS011;6154;51.550;12.138;2023-05-21T03:30:09;19.90;;;12.93;;
12181;SDS011;6154;51.550;12.138;2023-05-21T03:32:43;19.75;;;12.55;;
12181;SDS011;6154;51.550;12.138;2023-05-21T03:35:12;20.25;;;12.13;;
12181;SDS011;6154;51.550;12.138;2023-05-21T03:37:40;24.35;;;13.82;;
12181;SDS011;6154;51.550;12.138;2023-05-21T03:40:09;22.73;;;13.60;;
12181;SDS011;6154;51.550;12.138;2023-05-21T03:42:37;18.92;;;12.68;;
12181;SDS011;6154;51.550;12.138;2023-05-21T03:45:06;21.73;;;13.50;;
12181;SDS011;6154;51.550;12.138;2023-05-21T03:47:35;20.77;;;12.45;;
12181;SDS011;6154;51.550;12.138;2023-05-21T03:50:06;20.92;;;12.10;;
12181;SDS011;6154;51.550;12.138;2023-05-21T03:52:36;19.37;;;12.15;;
12181;SDS011;6154;51.550;12.138;2023-05-21T03:55:04;22.33;;;13.15;;
12181;SDS011;6154;51.550;12.138;2023-05-21T03:57:33;19.77;;;13.13;;
12181;SDS011;6154;51.550;12.138;2023-05-21T04:00:01;19.75;;;12.50;;
12181;SDS011;6154;51.550;12.138;2023-05-21T04:02:41;19.60;;;11.65;;
12181;SDS011;6154;51.550;12.138;2023-05-21T04:05:12;17.87;;;12.15;;
12181;SDS011;6154;51.550;12.138;2023-05-21T04:07:40;23.20;;;13.45;;
12181;SDS011;6154;51.550;12.138;2023-05-21T04:10:08;21.92;;;13.30;;
12181;SDS011;6154;51.550;12.138;2023-05-21T04:12:37;19.52;;;13.15;;
12181;SDS011;6154;51.550;12.138;2023-05-21T04:15:05;22.30;;;14.50;;
12181;SDS011;6154;51.550;12.138;2023-05-21T04:17:35;19.83;;;12.13;;
12181;SDS011;6154;51.550;12.138;2023-05-21T04:20:03;19.25;;;12.52;;
12181;SDS011;6154;51.550;12.138;2023-05-21T04:22:34;21.83;;;12.57;;
12181;SDS011;6154;51.550;12.138;2023-05-21T04:25:02;20.17;;;11.60;;
12181;SDS011;6154;51.550;12.138;2023-05-21T04:27:32;19.20;;;12.60;;
12181;SDS011;6154;51.550;12.138;2023-05-21T04:30:01;19.90;;;12.90;;
12181;SDS011;6154;51.550;12.138;2023-05-21T04:32:31;20.83;;;12.65;;
12181;SDS011;6154;51.550;12.138;2023-05-21T04:35:00;19.15;;;12.88;;
12181;SDS011;6154;51.550;12.138;2023-05-21T04:37:30;19.98;;;13.07;;
12181;SDS011;6154;51.550;12.138;2023-05-21T04:40:02;23.15;;;12.98;;
12181;SDS011;6154;51.550;12.138;2023-05-21T04:42:32;19.73;;;12.63;;
12181;SDS011;6154;51.550;12.138;2023-05-21T04:45:02;18.35;;;12.48;;
12181;SDS011;6154;51.550;12.138;2023-05-21T04:47:32;20.17;;;11.70;;
12181;SDS011;6154;51.550;12.138;2023-05-21T04:50:02;22.37;;;13.32;;
12181;SDS011;6154;51.550;12.138;2023-05-21T04:52:31;23.00;;;14.63;;
12181;SDS011;6154;51.550;12.138;2023-05-21T04:55:00;19.75;;;12.77;;
12181;SDS011;6154;51.550;12.138;2023-05-21T04:57:30;20.00;;;12.80;;
12181;SDS011;6154;51.550;12.138;2023-05-21T04:59:58;22.23;;;13.43;;
12181;SDS011;6154;51.550;12.138;2023-05-21T05:02:28;19.95;;;13.82;;
12181;SDS011;6154;51.550;12.138;2023-05-21T05:04:59;20.80;;;13.77;;
12181;SDS011;6154;51.550;12.138;2023-05-21T05:07:27;18.95;;;12.85;;
12181;SDS011;6154;51.550;12.138;2023-05-21T05:09:55;21.98;;;14.02;;
12181;SDS011;6154;51.550;12.138;2023-05-21T05:12:23;21.12;;;13.85;;
12181;SDS011;6154;51.550;12.138;2023-05-21T05:14:53;21.37;;;13.32;;
12181;SDS011;6154;51.550;12.138;2023-05-21T05:17:21;21.83;;;13.57;;
12181;SDS011;6154;51.550;12.138;2023-05-21T05:19:50;22.52;;;14.05;;
12181;SDS011;6154;51.550;12.138;2023-05-21T05:22:19;21.80;;;14.80;;
12181;SDS011;6154;51.550;12.138;2023-05-21T05:24:47;20.48;;;12.75;;
12181;SDS011;6154;51.550;12.138;2023-05-21T05:27:15;20.08;;;14.07;;
12181;SDS011;6154;51.550;12.138;2023-05-21T05:29:44;22.17;;;13.60;;
12181;SDS011;6154;51.550;12.138;2023-05-21T05:32:14;22.70;;;14.90;;
12181;SDS011;6154;51.550;12.138;2023-05-21T05:34:46;19.67;;;13.82;;
12181;SDS011;6154;51.550;12.138;2023-05-21T05:37:14;20.05;;;13.18;;
12181;SDS011;6154;51.550;12.138;2023-05-21T05:39:43;22.65;;;14.45;;
12181;SDS011;6154;51.550;12.138;2023-05-21T05:42:12;24.42;;;14.45;;
12181;SDS011;6154;51.550;12.138;2023-05-21T05:44:40;21.75;;;14.00;;
12181;SDS011;6154;51.550;12.138;2023-05-21T05:47:08;24.30;;;14.60;;
12181;SDS011;6154;51.550;12.138;2023-05-21T05:49:38;23.15;;;13.40;;
12181;SDS011;6154;51.550;12.138;2023-05-21T05:52:06;23.17;;;14.07;;
12181;SDS011;6154;51.550;12.138;2023-05-21T05:54:34;26.08;;;14.48;;
12181;SDS011;6154;51.550;12.138;2023-05-21T05:57:03;25.30;;;15.35;;
12181;SDS011;6154;51.550;12.138;2023-05-21T05:59:33;21.98;;;14.87;;
12181;SDS011;6154;51.550;12.138;2023-05-21T06:02:02;26.02;;;13.73;;
12181;SDS011;6154;51.550;12.138;2023-05-21T06:04:31;23.05;;;14.43;;
12181;SDS011;6154;51.550;12.138;2023-05-21T06:07:00;20.95;;;14.30;;
12181;SDS011;6154;51.550;12.138;2023-05-21T06:09:28;22.27;;;13.43;;
12181;SDS011;6154;51.550;12.138;2023-05-21T06:11:57;22.95;;;14.77;;
12181;SDS011;6154;51.550;12.138;2023-05-21T06:14:25;21.17;;;14.32;;
12181;SDS011;6154;51.550;12.138;2023-05-21T06:16:53;24.02;;;14.25;;
12181;SDS011;6154;51.550;12.138;2023-05-21T06:19:22;22.23;;;13.93;;
12181;SDS011;6154;51.550;12.138;2023-05-21T06:21:50;23.02;;;13.80;;
12181;SDS011;6154;51.550;12.138;2023-05-21T06:24:20;21.08;;;14.05;;
12181;SDS011;6154;51.550;12.138;2023-05-21T06:26:48;22.62;;;13.68;;
12181;SDS011;6154;51.550;12.138;2023-05-21T06:29:17;22.87;;;14.73;;
12181;SDS011;6154;51.550;12.138;2023-05-21T06:31:45;19.30;;;13.43;;
12181;SDS011;6154;51.550;12.138;2023-05-21T06:34:14;22.58;;;14.10;;
12181;SDS011;6154;51.550;12.138;2023-05-21T06:36:43;22.25;;;14.18;;
12181;SDS011;6154;51.550;12.138;2023-05-21T06:39:11;22.67;;;14.38;;
12181;SDS011;6154;51.550;12.138;2023-05-21T06:41:42;20.33;;;13.60;;
12181;SDS011;6154;51.550;12.138;2023-05-21T06:44:18;22.58;;;14.68;;
12181;SDS011;6154;51.550;12.138;2023-05-21T06:46:49;19.80;;;13.65;;
12181;SDS011;6154;51.550;12.138;2023-05-21T06:49:17;21.08;;;13.98;;
12181;SDS011;6154;51.550;12.138;2023-05-21T06:51:49;17.73;;;12.98;;
12181;SDS011;6154;51.550;12.138;2023-05-21T06:54:18;20.15;;;13.30;;
12181;SDS011;6154;51.550;12.138;2023-05-21T06:56:50;19.75;;;13.52;;
12181;SDS011;6154;51.550;12.138;2023-05-21T06:59:19;20.33;;;13.35;;
12181;SDS011;6154;51.550;12.138;2023-05-21T07:01:47;22.62;;;13.15;;
12181;SDS011;6154;51.550;12.138;2023-05-21T07:04:15;17.73;;;13.35;;
12181;SDS011;6154;51.550;12.138;2023-05-21T07:06:44;19.85;;;13.32;;
12181;SDS011;6154;51.550;12.138;2023-05-21T07:09:12;19.15;;;14.00;;
12181;SDS011;6154;51.550;12.138;2023-05-21T07:11:41;20.75;;;14.20;;
12181;SDS011;6154;51.550;12.138;2023-05-21T07:14:13;20.12;;;13.52;;
12181;SDS011;6154;51.550;12.138;2023-05-21T07:16:41;20.67;;;13.50;;
12181;SDS011;6154;51.550;12.138;2023-05-21T07:19:10;18.10;;;12.85;;
12181;SDS011;6154;51.550;12.138;2023-05-21T07:21:38;17.58;;;13.10;;
12181;SDS011;6154;51.550;12.138;2023-05-21T07:24:07;18.55;;;12.23;;
12181;SDS011;6154;51.550;12.138;2023-05-21T07:26:36;15.15;;;11.80;;
12181;SDS011;6154;51.550;12.138;2023-05-21T07:29:05;20.37;;;13.45;;
12181;SDS011;6154;51.550;12.138;2023-05-21T07:31:35;15.30;;;12.05;;
12181;SDS011;6154;51.550;12.138;2023-05-21T07:34:04;15.65;;;11.98;;
12181;SDS011;6154;51.550;12.138;2023-05-21T07:36:33;17.60;;;12.48;;
12181;SDS011;6154;51.550;12.138;2023-05-21T07:39:09;17.08;;;12.50;;
12181;SDS011;6154;51.550;12.138;2023-05-21T07:41:39;16.95;;;12.52;;
12181;SDS011;6154;51.550;12.138;2023-05-21T07:44:08;15.40;;;11.93;;
12181;SDS011;6154;51.550;12.138;2023-05-21T07:46:40;21.65;;;12.30;;
12181;SDS011;6154;51.550;12.138;2023-05-21T07:49:09;17.62;;;12.15;;
12181;SDS011;6154;51.550;12.138;2023-05-21T07:51:43;17.30;;;12.25;;
12181;SDS011;6154;51.550;12.138;2023-05-21T07:54:12;16.40;;;12.20;;
12181;SDS011;6154;51.550;12.138;2023-05-21T07:56:40;17.62;;;12.55;;
12181;SDS011;6154;51.550;12.138;2023-05-21T07:59:10;18.90;;;11.43;;
12181;SDS011;6154;51.550;12.138;2023-05-21T08:01:44;16.83;;;11.57;;
12181;SDS011;6154;51.550;12.138;2023-05-21T08:04:13;15.98;;;11.57;;
12181;SDS011;6154;51.550;12.138;2023-05-21T08:06:41;17.80;;;11.55;;
12181;SDS011;6154;51.550;12.138;2023-05-21T08:09:09;15.18;;;11.23;;
12181;SDS011;6154;51.550;12.138;2023-05-21T08:11:39;16.62;;;11.95;;
12181;SDS011;6154;51.550;12.138;2023-05-21T08:14:07;15.88;;;11.68;;
12181;SDS011;6154;51.550;12.138;2023-05-21T08:16:36;14.68;;;10.80;;
12181;SDS011;6154;51.550;12.138;2023-05-21T08:19:06;15.43;;;11.40;;
12181;SDS011;6154;51.550;12.138;2023-05-21T08:21:35;15.18;;;11.02;;
12181;SDS011;6154;51.550;12.138;2023-05-21T08:24:03;13.93;;;10.45;;
12181;SDS011;6154;51.550;12.138;2023-05-21T08:26:32;15.82;;;11.05;;
12181;SDS011;6154;51.550;12.138;2023-05-21T08:29:01;16.48;;;10.98;;
12181;SDS011;6154;51.550;12.138;2023-05-21T08:31:29;16.77;;;11.00;;
12181;SDS011;6154;51.550;12.138;2023-05-21T08:33:58;16.98;;;12.27;;
12181;SDS011;6154;51.550;12.138;2023-05-21T08:36:29;13.90;;;10.45;;
12181;SDS011;6154;51.550;12.138;2023-05-21T08:39:00;12.32;;;9.55;;
12181;SDS011;6154;51.550;12.138;2023-05-21T08:41:32;15.18;;;10.45;;
12181;SDS011;6154;51.550;12.138;2023-05-21T08:44:06;14.55;;;10.20;;
12181;SDS011;6154;51.550;12.138;2023-05-21T08:46:38;15.88;;;11.45;;
12181;SDS011;6154;51.550;12.138;2023-05-21T08:49:10;13.30;;;10.70;;
12181;SDS011;6154;51.550;12.138;2023-05-21T08:51:41;13.25;;;10.30;;
12181;SDS011;6154;51.550;12.138;2023-05-21T08:54:10;13.60;;;9.73;;
12181;SDS011;6154;51.550;12.138;2023-05-21T08:56:39;12.57;;;10.35;;
12181;SDS011;6154;51.550;12.138;2023-05-21T08:59:15;12.93;;;10.13;;
12181;SDS011;6154;51.550;12.138;2023-05-21T09:01:47;12.48;;;10.00;;
12181;SDS011;6154;51.550;12.138;2023-05-21T09:04:17;12.10;;;10.40;;
12181;SDS011;6154;51.550;12.138;2023-05-21T09:06:49;12.68;;;10.48;;
12181;SDS011;6154;51.550;12.138;2023-05-21T09:09:23;15.13;;;10.80;;
12181;SDS011;6154;51.550;12.138;2023-05-21T09:11:54;14.10;;;10.20;;
12181;SDS011;6154;51.550;12.138;2023-05-21T09:14:23;12.40;;;10.10;;
12181;SDS011;6154;51.550;12.138;2023-05-21T09:16:53;14.02;;;10.18;;
12181;SDS011;6154;51.550;12.138;2023-05-21T09:19:22;11.45;;;9.77;;
12181;SDS011;6154;51.550;12.138;2023-05-21T09:21:52;15.32;;;9.63;;
12181;SDS011;6154;51.550;12.138;2023-05-21T09:24:21;12.23;;;9.10;;
12181;SDS011;6154;51.550;12.138;2023-05-21T09:26:50;13.18;;;10.23;;
12181;SDS011;6154;51.550;12.138;2023-05-21T09:29:19;13.80;;;9.77;;
12181;SDS011;6154;51.550;12.138;2023-05-21T09:31:48;12.63;;;9.88;;
12181;SDS011;6154;51.550;12.138;2023-05-21T09:34:16;13.45;;;9.60;;
12181;SDS011;6154;51.550;12.138;2023-05-21T09:36:45;12.10;;;9.45;;
12181;SDS011;6154;51.550;12.138;2023-05-21T09:39:27;11.00;;;8.98;;
12181;SDS011;6154;51.550;12.138;2023-05-21T09:41:58;10.57;;;8.93;;
12181;SDS011;6154;51.550;12.138;2023-05-21T09:44:26;12.93;;;10.05;;
12181;SDS011;6154;51.550;12.138;2023-05-21T09:46:55;9.38;;;8.25;;
12181;SDS011;6154;51.550;12.138;2023-05-21T09:49:25;9.70;;;8.02;;
12181;SDS011;6154;51.550;12.138;2023-05-21T09:51:54;13.75;;;8.48;;
12181;SDS011;6154;51.550;12.138;2023-05-21T09:54:22;9.30;;;8.27;;
12181;SDS011;6154;51.550;12.138;2023-05-21T09:56:53;10.88;;;8.32;;
12181;SDS011;6154;51.550;12.138;2023-05-21T09:59:21;13.98;;;8.80;;
12181;SDS011;6154;51.550;12.138;2023-05-21T10:01:50;10.23;;;8.10;;
12181;SDS011;6154;51.550;12.138;2023-05-21T10:04:19;11.93;;;8.60;;
12181;SDS011;6154;51.550;12.138;2023-05-21T10:06:49;10.57;;;9.18;;
12181;SDS011;6154;51.550;12.138;2023-05-21T10:09:17;9.52;;;8.25;;
12181;SDS011;6154;51.550;12.138;2023-05-21T10:11:47;9.75;;;7.90;;
12181;SDS011;6154;51.550;12.138;2023-05-21T10:14:20;9.82;;;8.18;;
12181;SDS011;6154;51.550;12.138;2023-05-21T10:16:53;12.05;;;8.60;;
12181;SDS011;6154;51.550;12.138;2023-05-21T10:19:21;9.82;;;8.52;;
12181;SDS011;6154;51.550;12.138;2023-05-21T10:21:54;9.88;;;8.20;;
12181;SDS011;6154;51.550;12.138;2023-05-21T10:24:23;9.48;;;8.10;;
12181;SDS011;6154;51.550;12.138;2023-05-21T10:26:52;9.88;;;7.03;;
12181;SDS011;6154;51.550;12.138;2023-05-21T10:29:22;10.23;;;7.12;;
12181;SDS011;6154;51.550;12.138;2023-05-21T10:31:52;10.75;;;8.13;;
12181;SDS011;6154;51.550;12.138;2023-05-21T10:34:21;10.00;;;7.50;;
12181;SDS011;6154;51.550;12.138;2023-05-21T10:36:50;9.38;;;7.85;;
12181;SDS011;6154;51.550;12.138;2023-05-21T10:39:21;9.75;;;7.53;;
12181;SDS011;6154;51.550;12.138;2023-05-21T10:41:53;9.40;;;7.15;;
12181;SDS011;6154;51.550;12.138;2023-05-21T10:44:32;8.52;;;6.97;;
12181;SDS011;6154;51.550;12.138;2023-05-21T10:47:19;7.97;;;7.18;;
12181;SDS011;6154;51.550;12.138;2023-05-21T10:50:17;7.43;;;6.60;;
12181;SDS011;6154;51.550;12.138;2023-05-21T10:53:06;8.05;;;7.15;;
12181;SDS011;6154;51.550;12.138;2023-05-21T10:55:45;8.13;;;6.50;;
12181;SDS011;6154;51.550;12.138;2023-05-21T10:58:28;8.32;;;6.55;;
12181;SDS011;6154;51.550;12.138;2023-05-21T11:01:11;6.95;;;6.22;;
12181;SDS011;6154;51.550;12.138;2023-05-21T11:03:41;7.60;;;6.80;;
12181;SDS011;6154;51.550;12.138;2023-05-21T11:06:09;7.35;;;6.12;;
12181;SDS011;6154;51.550;12.138;2023-05-21T11:08:38;7.62;;;6.43;;
12181;SDS011;6154;51.550;12.138;2023-05-21T11:11:19;7.90;;;5.85;;
12181;SDS011;6154;51.550;12.138;2023-05-21T11:14:24;6.93;;;5.68;;
12181;SDS011;6154;51.550;12.138;2023-05-21T11:17:00;7.68;;;6.62;;
12181;SDS011;6154;51.550;12.138;2023-05-21T11:19:36;8.85;;;6.90;;
12181;SDS011;6154;51.550;12.138;2023-05-21T11:22:06;8.82;;;6.53;;
12181;SDS011;6154;51.550;12.138;2023-05-21T11:24:36;8.10;;;6.30;;
12181;SDS011;6154;51.550;12.138;2023-05-21T11:27:06;7.75;;;7.05;;
12181;SDS011;6154;51.550;12.138;2023-05-21T11:29:42;7.15;;;6.43;;
12181;SDS011;6154;51.550;12.138;2023-05-21T11:32:13;8.73;;;6.72;;
12181;SDS011;6154;51.550;12.138;2023-05-21T11:34:43;7.00;;;6.03;;
12181;SDS011;6154;51.550;12.138;2023-05-21T11:37:22;7.22;;;6.32;;
12181;SDS011;6154;51.550;12.138;2023-05-21T11:39:53;7.53;;;6.72;;
12181;SDS011;6154;51.550;12.138;2023-05-21T11:42:29;9.10;;;6.60;;
12181;SDS011;6154;51.550;12.138;2023-05-21T11:45:00;7.05;;;6.35;;
12181;SDS011;6154;51.550;12.138;2023-05-21T11:47:32;7.85;;;6.57;;
12181;SDS011;6154;51.550;12.138;2023-05-21T11:50:01;8.25;;;6.72;;
12181;SDS011;6154;51.550;12.138;2023-05-21T11:52:31;7.43;;;6.62;;
12181;SDS011;6154;51.550;12.138;2023-05-21T11:54:59;6.37;;;5.78;;
12181;SDS011;6154;51.550;12.138;2023-05-21T11:57:28;5.87;;;5.30;;
12181;SDS011;6154;51.550;12.138;2023-05-21T11:59:58;11.55;;;6.70;;
12181;SDS011;6154;51.550;12.138;2023-05-21T12:02:42;7.60;;;5.90;;
12181;SDS011;6154;51.550;12.138;2023-05-21T12:05:12;7.95;;;5.75;;
12181;SDS011;6154;51.550;12.138;2023-05-21T12:07:45;7.35;;;5.55;;
12181;SDS011;6154;51.550;12.138;2023-05-21T12:10:19;6.53;;;5.80;;
12181;SDS011;6154;51.550;12.138;2023-05-21T12:12:48;7.40;;;6.12;;
12181;SDS011;6154;51.550;12.138;2023-05-21T12:15:24;7.65;;;6.65;;
12181;SDS011;6154;51.550;12.138;2023-05-21T12:17:56;7.12;;;6.32;;
12181;SDS011;6154;51.550;12.138;2023-05-21T12:20:24;7.12;;;5.93;;
12181;SDS011;6154;51.550;12.138;2023-05-21T12:22:55;7.47;;;5.40;;
12181;SDS011;6154;51.550;12.138;2023-05-21T12:25:25;8.73;;;5.80;;
12181;SDS011;6154;51.550;12.138;2023-05-21T12:27:54;5.97;;;5.25;;
12181;SDS011;6154;51.550;12.138;2023-05-21T12:30:25;5.60;;;5.00;;
12181;SDS011;6154;51.550;12.138;2023-05-21T12:32:57;6.93;;;5.40;;
12181;SDS011;6154;51.550;12.138;2023-05-21T12:35:28;5.72;;;4.72;;
12181;SDS011;6154;51.550;12.138;2023-05-21T12:37:59;6.43;;;5.82;;
12181;SDS011;6154;51.550;12.138;2023-05-21T12:40:33;6.05;;;5.45;;
12181;SDS011;6154;51.550;12.138;2023-05-21T12:43:03;6.37;;;5.15;;
12181;SDS011;6154;51.550;12.138;2023-05-21T12:45:32;5.68;;;5.10;;
12181;SDS011;6154;51.550;12.138;2023-05-21T12:48:03;6.60;;;5.43;;
12181;SDS011;6154;51.550;12.138;2023-05-21T12:50:32;5.72;;;5.12;;
12181;SDS011;6154;51.550;12.138;2023-05-21T12:53:01;5.70;;;5.18;;
12181;SDS011;6154;51.550;12.138;2023-05-21T12:55:29;5.95;;;5.35;;
12181;SDS011;6154;51.550;12.138;2023-05-21T12:58:00;6.85;;;5.60;;
12181;SDS011;6154;51.550;12.138;2023-05-21T13:00:30;7.07;;;5.72;;
12181;SDS011;6154;51.550;12.138;2023-05-21T13:02:59;9.77;;;5.65;;
12181;SDS011;6154;51.550;12.138;2023-05-21T13:05:29;6.07;;;5.32;;
12181;SDS011;6154;51.550;12.138;2023-05-21T13:07:57;6.35;;;5.47;;
12181;SDS011;6154;51.550;12.138;2023-05-21T13:10:29;7.05;;;5.72;;
12181;SDS011;6154;51.550;12.138;2023-05-21T13:12:57;6.85;;;5.05;;
12181;SDS011;6154;51.550;12.138;2023-05-21T13:15:26;5.62;;;5.03;;
12181;SDS011;6154;51.550;12.138;2023-05-21T13:17:56;5.97;;;5.35;;
12181;SDS011;6154;51.550;12.138;2023-05-21T13:20:24;6.20;;;5.05;;
12181;SDS011;6154;51.550;12.138;2023-05-21T13:22:55;7.12;;;5.12;;
12181;SDS011;6154;51.550;12.138;2023-05-21T13:25:24;7.57;;;6.05;;
12181;SDS011;6154;51.550;12.138;2023-05-21T13:27:55;8.82;;;5.35;;
12181;SDS011;6154;51.550;12.138;2023-05-21T13:30:24;6.18;;;4.82;;
12181;SDS011;6154;51.550;12.138;2023-05-21T13:32:53;7.97;;;5.60;;
12181;SDS011;6154;51.550;12.138;2023-05-21T13:35:21;7.37;;;5.10;;
12181;SDS011;6154;51.550;12.138;2023-05-21T13:37:50;7.95;;;5.90;;
12181;SDS011;6154;51.550;12.138;2023-05-21T13:40:19;6.68;;;5.70;;
12181;SDS011;6154;51.550;12.138;2023-05-21T13:42:48;9.60;;;4.93;;
12181;SDS011;6154;51.550;12.138;2023-05-21T13:45:18;6.22;;;5.25;;
12181;SDS011;6154;51.550;12.138;2023-05-21T13:47:47;6.93;;;6.05;;
12181;SDS011;6154;51.550;12.138;2023-05-21T13:50:15;6.68;;;6.03;;
12181;SDS011;6154;51.550;12.138;2023-05-21T13:52:44;6.75;;;6.05;;
12181;SDS011;6154;51.550;12.138;2023-05-21T13:55:20;6.22;;;5.60;;
12181;SDS011;6154;51.550;12.138;2023-05-21T13:57:48;7.10;;;5.62;;
12181;SDS011;6154;51.550;12.138;2023-05-21T14:00:16;5.97;;;5.32;;
12181;SDS011;6154;51.550;12.138;2023-05-21T14:02:44;8.65;;;5.45;;
12181;SDS011;6154;51.550;12.138;2023-05-21T14:05:13;6.97;;;5.93;;
12181;SDS011;6154;51.550;12.138;2023-05-21T14:07:41;7.55;;;5.72;;
12181;SDS011;6154;51.550;12.138;2023-05-21T14:10:09;7.87;;;6.55;;
12181;SDS011;6154;51.550;12.138;2023-05-21T14:12:40;7.18;;;5.97;;
12181;SDS011;6154;51.550;12.138;2023-05-21T14:15:08;8.75;;;5.90;;
12181;SDS011;6154;51.550;12.138;2023-05-21T14:17:38;8.32;;;6.12;;
12181;SDS011;6154;51.550;12.138;2023-05-21T14:20:08;6.85;;;6.15;;
12181;SDS011;6154;51.550;12.138;2023-05-21T14:22:36;7.05;;;6.35;;
12181;SDS011;6154;51.550;12.138;2023-05-21T14:25:05;9.60;;;6.15;;
12181;SDS011;6154;51.550;12.138;2023-05-21T14:27:34;6.55;;;5.85;;
12181;SDS011;6154;51.550;12.138;2023-05-21T14:30:06;6.72;;;6.12;;
12181;SDS011;6154;51.550;12.138;2023-05-21T14:32:35;8.82;;;6.87;;
12181;SDS011;6154;51.550;12.138;2023-05-21T14:35:03;7.10;;;6.18;;
12181;SDS011;6154;51.550;12.138;2023-05-21T14:37:32;9.15;;;6.78;;
12181;SDS011;6154;51.550;12.138;2023-05-21T14:40:00;6.70;;;6.07;;
12181;SDS011;6154;51.550;12.138;2023-05-21T14:42:31;6.57;;;5.68;;
12181;SDS011;6154;51.550;12.138;2023-05-21T14:44:59;7.55;;;6.57;;
12181;SDS011;6154;51.550;12.138;2023-05-21T14:47:45;8.45;;;6.90;;